Adner, Louisiana
Current Conditions -  °F | °C
As of 6:21 AM on Sunday 23 Nov 2014 (Local Time) from KBAD Reporting Station
Light Rain Light Rain  
Wind Chill: 17°   Ceiling: Unl
Heat Index: 17°   Visibility: 9mi
Dew Point: 17°   Wind: 8mph
Humidity: 100%   Direction: 150°SSE
Pressure: 29.61"   Gusts: NA
Location:  32.5391°N, 93.5257°W
Report Text: KBAD 231221Z AUTO 15007KT 9SM R15/5500FT -RA SCT006 17/17 A2961 RMK AO2
Loading
Personal Weather Stations






























Interactive Weather Map New forecast layout! Learn more

10-Day Weather Forecast

Advertisements
Track Severe Weather on mobile